Terminal Aerodrome Forecast
Issued by NWS

Home | Current Version | Previous Version | Text Only | Print | Product List | Glossary On
Versions: 1 2 3 4 5 6 7 8 9 10 11 12 13 14 15
000
FTUS44 KLZK 011700
TAFLLQ
TAF
KLLQ 011736Z 0118/0218 20013G21KT 6SM -SHRA OVC005
      TEMPO 0120/0122 5SM SHRA SCT005 BKN012 OVC025
     FM012200 27012G20KT P6SM SCT012 SCT027 BKN050
     FM020300 30009G16KT P6SM FEW030
     FM021200 31011KT P6SM SKC=

USA.gov is the U.S. government's official web portal to all federal, state and local government web resources and services.